Archival Weather

Downtown Manhattan/Wall St

New York, Downtown Manhattan/Wall St (KJRB)

Report from: Friday, February 23, 2024 1:38 AM EST
Current time: Wednesday, May 29, 2024 7:24 PM EDT

Current weather – Weather history – Daily summaries
Weather forecast

Present weatherLight rain
Temperature6.0°C (42.8°F)
Wind chill3.6°C (38.6°F)
Dew point4.0°C (39.2°F)
Winds 6 kts (3.1 m/s, 6.9 mph) North-Northeast (30°)
Visibility10 mi. (16.1 km)
Clouds Scattered clouds 900 ft. (274 m)
Ceiling: Broken clouds 4,200 ft. (1,280 m)
Overcast 5,500 ft. (1,676 m)
Altimeter29.64 in.Hg (1004 mB)
Relative humidity87 %
Density altitude-641 ft. (-195 m)
Remarks Fully automated report
System requires maintenance
Automated weather observing station with precipitation discriminator
Precipitation sensor not operating
Flight conditions Visual Meteorological Conditions
Raw dataKJRB 230638Z AUTO 03006KT 10SM -RA SCT009 BKN042 OVC055 06/04 A2964 RMK AO2 PNO $
An error has occurred. This application may no longer respond until reloaded. Reload 🗙